»·PEaware :: UAL2414 KSFO-KMFR

UAL2414 :: KSFO-KMFR

FLIGHT INFORMATION

Flight Status: Arrived
Operator:
United Airlines
More flights by this operator :: More flights under this callsign
Pilot: Patricio R. (14780)
Aircraft: BOEING 737-200
(B732)
More flights by this aircraft type
Origin: KSFO San Francisco Intl
United States
Destination: KMFR Rogue Valley Intl-Medford
United States
More flights between these airports :: More routes between these airports
Route: +RBL V23 OED
File this flight plan on PilotEdge
Remarks:
Altitude:
(Current/Filed)
30,000ft
Speed:
(Current/Filed)
441kts
Departed: 20-Sep-18 05:51 PM
Arrived: 20-Sep-18 06:52 PM
Distance/Time
Traveled:
286nm/1:01
Distance/Time
To Go:
Arrived

Flight Plot

Page will automatically refresh every two minutes.

Flight plan parsing failed; only flown route is shown


Map Options




Map Legend


Flown Route
Filed Route
Departure Airport
Arrival Airport
Navaid (VOR, NDB)
Fix

Horizontal Profiles

Position Reports

Time Latitude Longitude Heading Altitude Ground
Speed
20-Sep-18 17:27 37.618061 -122.390350 210 13ft 0kts
20-Sep-18 17:28 37.618061 -122.390350 210 13ft 0kts
20-Sep-18 17:29 37.618061 -122.390350 210 13ft 0kts
20-Sep-18 17:35 37.621089 -122.390674 118 11ft 0kts
20-Sep-18 17:36 37.621089 -122.390674 118 11ft 0kts
20-Sep-18 17:37 37.621089 -122.390674 118 11ft 0kts
20-Sep-18 17:38 37.621089 -122.390674 118 11ft 0kts
20-Sep-18 17:39 37.621089 -122.390674 118 11ft 0kts
20-Sep-18 17:40 37.621089 -122.390674 118 11ft 0kts
20-Sep-18 17:41 37.621089 -122.390674 118 11ft 0kts
20-Sep-18 17:42 37.621099 -122.390699 118 11ft 2kts
20-Sep-18 17:43 37.621379 -122.391367 118 10ft 2kts
20-Sep-18 17:44 37.621326 -122.391664 27 10ft 0kts
20-Sep-18 17:45 37.621327 -122.391664 27 10ft 0kts
20-Sep-18 17:46 37.622179 -122.391056 45 10ft 10kts
20-Sep-18 17:47 37.621915 -122.387397 117 12ft 13kts
20-Sep-18 17:48 37.620178 -122.383250 119 14ft 13kts
20-Sep-18 17:49 37.618032 -122.377822 111 14ft 21kts
20-Sep-18 17:50 37.614963 -122.369819 120 10ft 27kts
20-Sep-18 17:51 37.611069 -122.361646 118 9ft 26kts
20-Sep-18 17:52 37.612344 -122.359835 297 10ft 36kts
20-Sep-18 17:53 37.631406 -122.405003 297 1143ft 211kts
20-Sep-18 17:54 37.663923 -122.464059 344 4258ft 221kts
20-Sep-18 17:55 37.727214 -122.460558 3 6846ft 246kts
20-Sep-18 17:56 37.800372 -122.453848 3 9061ft 280kts
20-Sep-18 17:57 37.880699 -122.447403 3 11343ft 297kts
20-Sep-18 17:58 37.962683 -122.440924 3 13502ft 306kts
20-Sep-18 17:59 38.047848 -122.425552 8 15480ft 315kts
20-Sep-18 18:00 38.135807 -122.412226 4 17270ft 323kts
20-Sep-18 18:01 38.226064 -122.402871 3 18894ft 331kts
20-Sep-18 18:02 38.318451 -122.394442 2 20346ft 339kts
20-Sep-18 18:03 38.413334 -122.386065 2 21654ft 346kts
20-Sep-18 18:04 38.510200 -122.377594 2 22832ft 354kts
20-Sep-18 18:05 38.609015 -122.368986 2 23899ft 360kts
20-Sep-18 18:06 38.705356 -122.360626 2 24817ft 367kts
20-Sep-18 18:07 38.807943 -122.351757 2 25701ft 373kts
20-Sep-18 18:08 38.911902 -122.342347 2 26540ft 377kts
20-Sep-18 18:09 39.017072 -122.332881 1 27296ft 382kts
20-Sep-18 18:10 39.123186 -122.323517 1 27967ft 387kts
20-Sep-18 18:11 39.232309 -122.314151 1 27995ft 397kts
20-Sep-18 18:12 39.342691 -122.304152 1 27984ft 401kts
20-Sep-18 18:13 39.454054 -122.294104 1 27981ft 405kts
20-Sep-18 18:14 39.566615 -122.284021 1 27980ft 407kts
20-Sep-18 18:15 39.653142 -122.276264 1 27978ft 409kts
20-Sep-18 18:16 39.766684 -122.266066 1 27977ft 411kts
20-Sep-18 18:17 39.880460 -122.255814 1 27976ft 413kts
20-Sep-18 18:18 39.995131 -122.245434 1 27972ft 414kts
20-Sep-18 18:19 40.109984 -122.234987 357 27966ft 414kts
20-Sep-18 18:20 40.214621 -122.285655 334 27971ft 406kts
20-Sep-18 18:21 40.319975 -122.340056 336 27965ft 408kts
20-Sep-18 18:22 40.425985 -122.391656 337 27962ft 408kts
20-Sep-18 18:23 40.532411 -122.442998 337 27961ft 409kts
20-Sep-18 18:24 40.639075 -122.494513 337 27961ft 409kts
20-Sep-18 18:25 40.746004 -122.546311 337 27961ft 410kts
20-Sep-18 18:26 40.852694 -122.598175 337 27863ft 413kts
20-Sep-18 18:27 40.960739 -122.648596 345 27852ft 415kts
20-Sep-18 18:28 41.072193 -122.682834 342 27992ft 411kts
20-Sep-18 18:29 41.178838 -122.716892 341 28007ft 376kts
20-Sep-18 18:30 41.277002 -122.749546 341 26356ft 359kts
20-Sep-18 18:31 41.372021 -122.781518 341 24537ft 349kts
20-Sep-18 18:32 41.465221 -122.809638 352 22719ft 344kts
20-Sep-18 18:33 41.559269 -122.817463 353 20964ft 335kts
20-Sep-18 18:34 41.650162 -122.830242 350 19233ft 326kts
20-Sep-18 18:35 41.739150 -122.842504 353 17527ft 319kts
20-Sep-18 18:36 41.826665 -122.851637 354 15859ft 313kts
20-Sep-18 18:37 41.912512 -122.859868 354 14224ft 307kts
20-Sep-18 18:38 41.996809 -122.867731 355 12635ft 302kts
20-Sep-18 18:39 42.079439 -122.875366 355 11097ft 296kts
20-Sep-18 18:40 42.160463 -122.882956 355 10011ft 291kts
20-Sep-18 18:41 42.240804 -122.890404 355 9527ft 288kts
20-Sep-18 18:42 42.320939 -122.898032 355 8025ft 285kts
20-Sep-18 18:43 42.395036 -122.904720 355 7997ft 262kts
20-Sep-18 18:44 42.466509 -122.910289 353 7994ft 252kts
20-Sep-18 18:45 42.535089 -122.923400 350 7145ft 251kts
20-Sep-18 18:46 42.600294 -122.906667 32 6036ft 250kts
20-Sep-18 18:47 42.659027 -122.892906 309 6013ft 223kts
20-Sep-18 18:48 42.637959 -122.949040 174 5918ft 219kts
20-Sep-18 18:49 42.575629 -122.933732 170 4819ft 229kts
20-Sep-18 18:50 42.516168 -122.920774 171 4651ft 194kts
20-Sep-18 18:51 42.471810 -122.911349 172 3701ft 144kts
20-Sep-18 18:52 42.432989 -122.902847 165 2631ft 143kts
20-Sep-18 18:53 42.396703 -122.884736 158 1586ft 137kts
20-Sep-18 18:54 42.370145 -122.870750 162 1324ft 15kts
20-Sep-18 18:55 42.369175 -122.872018 236 1324ft 9kts
20-Sep-18 18:56 42.368740 -122.873367 248 1322ft 0kts
20-Sep-18 18:57 42.368740 -122.873367 248 1322ft 0kts

Navigation Log

Ident Type
Flight plan parsing failed, navigation log unavailable